| time (UTC) | temp F | wind direction | speed knots | gust knots | rain 1hr in | rain 24hr in | rain mn in | humidity % | barometer mb |
| 20260507091824 | 48 | 30 | 2.6 | 2.6 | 0.00 | 0.75 | 0.00 | 99 | 1009.1 |
| 20260507090800 | 48 | 10 | 0.0 | 0.0 | 0.00 | 0.75 | 0.00 | 99 | 1009.0 |
| 20260507085736 | 49 | 137 | 0.0 | 0.9 | 0.04 | 0.75 | 0.00 | 99 | 1008.6 |
| 20260507084729 | 49 | 169 | 0.0 | 0.9 | 0.04 | 0.75 | 0.00 | 99 | 1008.6 |
| 20260507083720 | 48 | 30 | 2.6 | 3.5 | 0.04 | 0.74 | 0.00 | 99 | 1008.6 |
| 20260507082656 | 48 | 134 | 1.7 | 2.6 | 0.04 | 0.72 | 0.00 | 99 | 1008.4 |
| 20260507081632 | 47 | 163 | 0.0 | 0.0 | 0.04 | 0.71 | 0.00 | 99 | 1008.1 |
| 20260507080628 | 48 | 311 | 1.7 | 2.6 | 0.04 | 0.64 | 0.00 | 99 | 1008.2 |
| 20260507075617 | 47 | 207 | 1.7 | 1.7 | 0.04 | 0.63 | 0.00 | 99 | 1008.2 |
| 20260507074608 | 48 | 56 | 1.7 | 1.7 | 0.00 | 0.61 | 0.00 | 99 | 1007.9 |
| 20260507073601 | 49 | 88 | 0.9 | 1.7 | 0.00 | 0.61 | 0.00 | 99 | 1007.9 |
| 20260507072552 | 49 | 192 | 0.0 | 0.0 | 0.00 | 0.61 | 0.00 | 99 | 1007.7 |
| 20260507071545 | 49 | 320 | 0.9 | 1.7 | 0.00 | 0.61 | 0.00 | 99 | 1007.8 |
| 20260507070532 | 49 | 112 | 0.0 | 0.0 | 0.00 | 0.61 | 0.00 | 99 | 1007.6 |
| 20260507065529 | 48 | 176 | 0.0 | 0.0 | 0.04 | 0.61 | 0.00 | 99 | 1007.6 |
| 20260507064520 | 48 | 225 | 0.9 | 1.7 | 0.04 | 0.61 | 0.00 | 99 | 1007.7 |
| 20260507063456 | 48 | 169 | 0.0 | 0.9 | 0.04 | 0.60 | 0.00 | 99 | 1007.3 |
| 20260507062432 | 48 | 251 | 0.9 | 0.9 | 0.04 | 0.60 | 0.00 | 99 | 1007.3 |
| 20260507061424 | 48 | 173 | 0.0 | 0.0 | 0.00 | 0.59 | 0.00 | 99 | 1007.2 |
| 20260507060417 | 48 | 249 | 0.0 | 0.0 | 0.00 | 0.59 | 0.00 | 99 | 1007.1 |
| 20260507054401 | 47 | 132 | 0.0 | 0.0 | 0.04 | 0.58 | 0.00 | 99 | 1006.9 |
| 20260507053352 | 48 | 240 | 0.0 | 0.0 | 0.04 | 0.57 | 0.00 | 99 | 1006.8 |
| 20260507052345 | 47 | 148 | 0.0 | 0.9 | 0.04 | 0.56 | 0.00 | 99 | 1006.6 |
| 20260507051332 | 48 | 166 | 0.9 | 1.7 | 0.04 | 0.55 | 0.00 | 99 | 1006.5 |
| 20260507050329 | 48 | 244 | 0.9 | 1.7 | 0.00 | 0.54 | 0.00 | 99 | 1006.4 |
| 20260507045320 | 48 | 189 | 0.0 | 0.0 | 0.04 | 0.54 | 0.00 | 99 | 1006.4 |
| 20260507044256 | 48 | 146 | 1.7 | 2.6 | 0.04 | 0.54 | 0.00 | 99 | 1006.1 |
| 20260507043232 | 48 | 196 | 0.0 | 1.7 | 0.04 | 0.54 | 0.00 | 99 | 1006.2 |
| 20260507042225 | 48 | 296 | 1.7 | 2.6 | 0.04 | 0.52 | 0.00 | 99 | 1005.9 |
| 20260507041217 | 48 | 164 | 0.9 | 0.9 | 0.04 | 0.50 | 0.00 | 99 | 1005.9 |
| 20260507040208 | 48 | 123 | 0.9 | 0.9 | 0.00 | 0.49 | 0.00 | 99 | 1005.8 |
| 20260507035201 | 48 | 153 | 0.9 | 0.9 | 0.00 | 0.49 | 0.00 | 99 | 1005.7 |
| 20260507034152 | 48 | 149 | 0.0 | 0.0 | 0.00 | 0.49 | 0.00 | 99 | 1005.9 |
| 20260507033145 | 48 | 222 | 1.7 | 1.7 | 0.00 | 0.49 | 0.00 | 99 | 1005.9 |
| 20260507032132 | 48 | 251 | 1.7 | 2.6 | 0.00 | 0.49 | 0.00 | 99 | 1005.8 |
| 20260507031129 | 48 | 181 | 0.0 | 0.9 | 0.00 | 0.49 | 0.00 | 99 | 1006.0 |
| 20260507030120 | 48 | 161 | 0.0 | 0.9 | 0.00 | 0.49 | 0.00 | 99 | 1006.0 |
| 20260507025056 | 48 | 256 | 0.9 | 0.9 | 0.04 | 0.48 | 0.00 | 99 | 1005.8 |
| 20260507024048 | 48 | 256 | 0.9 | 1.7 | 0.04 | 0.48 | 0.00 | 99 | 1005.7 |
| 20260507023024 | 49 | 161 | 0.0 | 0.0 | 0.04 | 0.47 | 0.00 | 99 | 1006.0 |
| 20260507022000 | 49 | 203 | 1.7 | 2.6 | 0.04 | 0.45 | 0.00 | 99 | 1006.0 |
| 20260507020952 | 49 | 123 | 0.0 | 0.0 | 0.04 | 0.41 | 0.00 | 99 | 1005.7 |
| 20260507015944 | 49 | 174 | 0.9 | 0.9 | 0.04 | 0.36 | 0.00 | 99 | 1005.9 |
| 20260507014936 | 50 | 302 | 0.9 | 0.9 | 0.04 | 0.29 | 0.00 | 99 | 1005.7 |
| 20260507013928 | 50 | 268 | 0.9 | 1.7 | 0.04 | 0.23 | 0.00 | 99 | 1005.7 |
| 20260507012920 | 50 | 167 | 1.7 | 3.5 | 0.04 | 0.18 | 0.00 | 99 | 1005.4 |
| 20260507011912 | 50 | 263 | 0.0 | 0.9 | 0.04 | 0.16 | 0.00 | 99 | 1005.6 |
| 20260507010904 | 50 | 128 | 0.9 | 0.9 | 0.04 | 0.15 | 0.00 | 99 | 1005.5 |
| 20260507005856 | 50 | 119 | 1.7 | 1.7 | 0.04 | 0.13 | 0.00 | 99 | 1005.5 |
| 20260507004848 | 50 | 166 | 0.0 | 0.0 | 0.04 | 0.11 | 0.00 | 99 | 1005.5 |
| 20260507003824 | 50 | 162 | 0.0 | 0.0 | 0.04 | 0.10 | 0.00 | 99 | 1005.5 |
| 20260507002817 | 50 | 147 | 0.0 | 0.0 | 0.04 | 0.08 | 0.00 | 99 | 1005.5 |
| 20260507001808 | 50 | 168 | 0.0 | 0.0 | 0.04 | 0.08 | 0.00 | 99 | 1005.4 |
| 20260507000801 | 50 | 165 | 0.0 | 0.0 | 0.00 | 0.07 | 0.00 | 99 | 1005.4 |
| 20260506235752 | 50 | 169 | 0.0 | 0.0 | 0.04 | 0.07 | 0.00 | 99 | 1005.5 |
| 20260506234745 | 50 | 153 | 0.9 | 1.7 | 0.04 | 0.06 | 0.00 | 99 | 1005.5 |
| 20260506233736 | 51 | 189 | 0.0 | 0.0 | 0.04 | 0.05 | 0.00 | 99 | 1005.5 |
| 20260506232729 | 51 | 191 | 0.9 | 0.9 | 0.04 | 0.05 | 0.00 | 99 | 1005.5 |
| 20260506231720 | 51 | 154 | 0.0 | 0.0 | 0.04 | 0.04 | 0.00 | 99 | 1005.3 |
| 20260506230656 | 51 | 209 | 0.9 | 1.7 | 0.00 | 0.03 | 0.00 | 99 | 1005.3 |
| 20260506225648 | 51 | 160 | 0.0 | 0.0 | 0.04 | 0.02 | 0.00 | 99 | 1005.2 |
| 20260506224624 | 51 | 181 | 0.0 | 0.0 | 0.04 | 0.02 | 0.00 | 99 | 1005.2 |
| 20260506223617 | 51 | 176 | 0.0 | 0.0 | 0.04 | 0.02 | 0.00 | 99 | 1005.3 |
| 20260506222608 | 52 | 199 | 0.0 | 0.0 | 0.04 | 0.02 | 0.00 | 99 | 1005.3 |
| 20260506221544 | 52 | 154 | 0.0 | 0.9 | 0.04 | 0.02 | 0.00 | 99 | 1005.2 |
| 20260506220536 | 52 | 166 | 0.0 | 0.0 | 0.04 | 0.01 | 0.00 | 99 | 1005.2 |
| 20260506215528 | 51 | 176 | 0.0 | 0.0 | 0.04 | 0.27 | 0.00 | 99 | 1005.3 |
| 20260506214520 | 52 | 192 | 0.0 | 0.0 | 0.04 | 0.17 | 0.00 | 99 | 1005.4 |
| 20260506213512 | 52 | 165 | 0.0 | 0.0 | 0.04 | 0.15 | 0.00 | 99 | 1005.3 |
| 20260506212504 | 52 | 141 | 0.0 | 0.9 | 0.04 | 0.13 | 0.00 | 99 | 1005.0 |
| 20260506211456 | 52 | 251 | 0.0 | 0.0 | 0.04 | 0.13 | 0.00 | 99 | 1005.1 |
| 20260506210448 | 53 | 157 | 0.0 | 0.0 | 0.04 | 0.11 | 0.00 | 99 | 1004.8 |
| 20260506205440 | 53 | 144 | 0.0 | 0.0 | 0.04 | 0.10 | 0.00 | 98 | 1005.0 |
| 20260506204432 | 53 | 169 | 0.0 | 0.0 | 0.04 | 0.10 | 0.00 | 99 | 1005.1 |
| 20260506203424 | 53 | 165 | 0.9 | 0.9 | 0.00 | 0.03 | 0.00 | 99 | 1004.9 |
| 20260506202416 | 53 | 165 | 0.9 | 0.9 | 0.00 | 0.03 | 0.00 | 98 | 1005.0 |
| 20260506201408 | 53 | 165 | 0.0 | 0.9 | 0.00 | 0.03 | 0.00 | 96 | 1005.0 |
| 20260506200400 | 53 | 170 | 0.9 | 0.9 | 0.00 | 0.03 | 0.00 | 95 | 1004.9 |
| 20260506195352 | 53 | 169 | 0.0 | 0.0 | 0.00 | 0.03 | 0.00 | 94 | 1004.6 |
| 20260506194344 | 54 | 169 | 0.0 | 0.0 | 0.00 | 0.03 | 0.00 | 93 | 1004.6 |
| 20260506193336 | 54 | 170 | 0.9 | 0.9 | 0.00 | 0.03 | 0.00 | 92 | 1004.5 |
| 20260506192328 | 54 | 170 | 0.0 | 0.0 | 0.00 | 0.03 | 0.00 | 92 | 1004.4 |
| 20260506191320 | 54 | 171 | 0.0 | 0.0 | 0.00 | 0.03 | 0.00 | 91 | 1004.2 |
| 20260506190313 | 54 | 162 | 0.0 | 0.9 | 0.00 | 0.03 | 0.00 | 92 | 1004.1 |
| 20260506185306 | 54 | 160 | 0.9 | 0.9 | 0.00 | 0.03 | 0.00 | 91 | 1003.8 |
| 20260506184256 | 54 | 162 | 0.0 | 0.9 | 0.00 | 0.03 | 0.00 | 93 | 1003.8 |
| 20260506183248 | 54 | 161 | 0.9 | 0.9 | 0.00 | 0.03 | 0.00 | 92 | 1003.9 |
| 20260506182224 | 55 | 154 | 1.7 | 1.7 | 0.00 | 0.03 | 0.00 | 91 | 1003.7 |
| 20260506181217 | 55 | 166 | 0.9 | 1.7 | 0.00 | 0.03 | 0.00 | 91 | 1003.8 |
| 20260506180208 | 56 | 166 | 0.0 | 0.0 | 0.00 | 0.03 | 0.00 | 88 | 1003.7 |
| 20260506175201 | 57 | 165 | 0.9 | 0.9 | 0.00 | 0.03 | 0.00 | 85 | 1003.7 |
| 20260506174152 | 57 | 163 | 0.0 | 0.0 | 0.00 | 0.03 | 0.00 | 82 | 1003.8 |
| 20260506173145 | 58 | 164 | 0.0 | 0.0 | 0.00 | 0.03 | 0.00 | 82 | 1003.7 |
| 20260506172132 | 58 | 183 | 0.0 | 0.0 | 0.00 | 0.03 | 0.00 | 81 | 1003.4 |
| 20260506171129 | 59 | 200 | 0.0 | 0.9 | 0.00 | 0.03 | 0.00 | 79 | 1003.5 |
| 20260506170120 | 59 | 234 | 0.0 | 0.9 | 0.00 | 0.03 | 0.00 | 77 | 1003.3 |
| 20260506165056 | 60 | 177 | 0.0 | 0.0 | 0.00 | 0.03 | 0.00 | 76 | 1003.2 |
| 20260506164033 | 60 | 180 | 0.9 | 0.9 | 0.00 | 0.03 | 0.00 | 74 | 1003.2 |
| 20260506163024 | 60 | 165 | 0.0 | 0.0 | 0.00 | 0.03 | 0.00 | 73 | 1003.6 |
| 20260506162017 | 60 | 157 | 0.0 | 0.0 | 0.00 | 0.03 | 0.00 | 73 | 1003.5 |
| 20260506161008 | 60 | 208 | 0.9 | 0.9 | 0.00 | 0.03 | 0.00 | 71 | 1003.4 |
| 20260506160001 | 61 | 179 | 0.0 | 0.0 | 0.00 | 0.03 | 0.00 | 72 | 1003.6 |
| 20260506154952 | 61 | 11 | 0.0 | 0.0 | 0.00 | 0.03 | 0.00 | 71 | 1003.4 |
| 20260506153945 | 62 | 163 | 0.9 | 1.7 | 0.00 | 0.03 | 0.00 | 70 | 1003.5 |
| 20260506152932 | 63 | 202 | 1.7 | 1.7 | 0.00 | 0.03 | 0.00 | 68 | 1003.7 |
| 20260506151912 | 62 | 131 | 0.0 | 0.0 | 0.00 | 0.03 | 0.00 | 68 | 1003.7 |
| 20260506150904 | 63 | 330 | 0.9 | 1.7 | 0.00 | 0.03 | 0.00 | 67 | 1003.7 |
| 20260506145856 | 62 | 188 | 0.9 | 0.9 | 0.00 | 0.03 | 0.00 | 69 | 1003.7 |
| 20260506144833 | 62 | 184 | 0.0 | 0.9 | 0.00 | 0.03 | 0.00 | 68 | 1003.9 |
| 20260506143824 | 63 | 244 | 1.7 | 2.6 | 0.00 | 0.03 | 0.00 | 67 | 1003.8 |
| 20260506142817 | 64 | 254 | 0.9 | 1.7 | 0.00 | 0.03 | 0.00 | 64 | 1003.8 |
| 20260506141808 | 63 | 209 | 1.7 | 2.6 | 0.00 | 0.03 | 0.00 | 65 | 1003.9 |
| 20260506140801 | 63 | 147 | 0.0 | 0.9 | 0.00 | 0.03 | 0.00 | 69 | 1003.8 |
| 20260506135752 | 63 | 181 | 2.6 | 3.5 | 0.00 | 0.03 | 0.00 | 67 | 1003.8 |
| 20260506134745 | 62 | 186 | 2.6 | 3.5 | 0.00 | 0.03 | 0.00 | 67 | 1003.7 |
| 20260506133736 | 62 | 183 | 0.9 | 0.9 | 0.00 | 0.03 | 0.00 | 69 | 1003.9 |
| 20260506132729 | 62 | 116 | 0.9 | 0.9 | 0.00 | 0.03 | 0.00 | 71 | 1004.1 |
| 20260506131720 | 62 | 136 | 0.0 | 0.0 | 0.00 | 0.03 | 0.00 | 72 | 1004.3 |
| 20260506130657 | 62 | 219 | 0.9 | 1.7 | 0.00 | 0.03 | 0.00 | 73 | 1004.0 |
| 20260506125648 | 62 | 273 | 4.3 | 5.2 | 0.00 | 0.03 | 0.00 | 72 | 1004.3 |
| 20260506124624 | 62 | 242 | 0.0 | 0.9 | 0.00 | 0.03 | 0.00 | 70 | 1004.3 |
| 20260506123617 | 62 | 173 | 0.9 | 2.6 | 0.00 | 0.03 | 0.00 | 71 | 1004.3 |
| 20260506122608 | 62 | 115 | 0.9 | 1.7 | 0.00 | 0.03 | 0.00 | 71 | 1004.4 |
| 20260506121601 | 61 | 273 | 0.0 | 0.0 | 0.00 | 0.03 | 0.00 | 76 | 1004.4 |
| 20260506120552 | 60 | 288 | 0.9 | 1.7 | 0.00 | 0.03 | 0.00 | 76 | 1004.2 |
| 20260506115545 | 60 | 146 | 0.0 | 0.9 | 0.00 | 0.03 | 0.00 | 76 | 1004.4 |
| 20260506114532 | 61 | 191 | 1.7 | 2.6 | 0.00 | 0.03 | 0.00 | 74 | 1004.5 |
| 20260506113529 | 61 | 100 | 0.0 | 0.9 | 0.00 | 0.03 | 0.00 | 76 | 1004.5 |
| 20260506112520 | 59 | 114 | 0.0 | 0.9 | 0.00 | 0.03 | 0.00 | 79 | 1004.4 |
| 20260506111456 | 58 | 170 | 0.0 | 0.9 | 0.00 | 0.03 | 0.00 | 83 | 1004.6 |
| 20260506110448 | 58 | 276 | 0.0 | 0.0 | 0.00 | 0.03 | 0.00 | 84 | 1004.5 |
| 20260506105424 | 57 | 170 | 0.9 | 1.7 | 0.00 | 0.03 | 0.00 | 85 | 1004.6 |
| 20260506104417 | 58 | 183 | 3.5 | 3.5 | 0.00 | 0.03 | 0.00 | 84 | 1004.6 |
| 20260506103409 | 58 | 131 | 0.0 | 0.9 | 0.00 | 0.03 | 0.00 | 84 | 1004.5 |
| 20260506102401 | 58 | 187 | 0.9 | 0.9 | 0.00 | 0.03 | 0.00 | 85 | 1004.5 |
| 20260506101352 | 57 | 143 | 0.0 | 0.9 | 0.00 | 0.03 | 0.00 | 86 | 1004.6 |
| 20260506100345 | 56 | 151 | 0.0 | 0.0 | 0.00 | 0.03 | 0.00 | 86 | 1004.7 |
| 20260506095332 | 58 | 193 | 2.6 | 3.5 | 0.00 | 0.03 | 0.00 | 85 | 1004.5 |
| 20260506094329 | 60 | 144 | 1.7 | 2.6 | 0.00 | 0.03 | 0.00 | 83 | 1004.4 |
| 20260506093320 | 57 | 266 | 0.9 | 1.7 | 0.00 | 0.03 | 0.00 | 88 | 1004.5 |
| 20260506092256 | 57 | 163 | 2.6 | 3.5 | 0.00 | 0.03 | 0.00 | 88 | 1004.4 |